createdAt,value
2022-09-20T00:05:02.277Z,101345.69
2022-09-20T00:07:30.871Z,101344.34
2022-09-20T00:10:05.165Z,101348.78
2022-09-20T00:12:37.757Z,101351.13
2022-09-20T00:15:07.263Z,101350.59
2022-09-20T00:17:34.814Z,101346.09
2022-09-20T00:20:04.190Z,101349.81
2022-09-20T00:22:34.268Z,101349.19
2022-09-20T00:25:10.906Z,101355.03
2022-09-20T00:27:41.405Z,101361.31
2022-09-20T00:32:36.527Z,101359.19
2022-09-20T00:35:14.948Z,101352.16
2022-09-20T00:37:43.965Z,101357.44
2022-09-20T00:40:20.636Z,101361.84
2022-09-20T00:42:50.338Z,101357.69
2022-09-20T00:45:30.690Z,101357.06
2022-09-20T00:48:03.653Z,101357.06
2022-09-20T00:51:03.188Z,101365.50
2022-09-20T00:53:43.084Z,101366.19
2022-09-20T00:56:38.643Z,101370.25
2022-09-20T00:59:29.177Z,101361.25
2022-09-20T01:02:15.046Z,101369.56
2022-09-20T01:04:44.681Z,101375.44
2022-09-20T01:07:20.037Z,101369.09
2022-09-20T01:09:47.202Z,101373.19
2022-09-20T01:12:22.258Z,101379.56
2022-09-20T01:14:51.440Z,101366.38
2022-09-20T01:17:21.997Z,101371.19
2022-09-20T01:20:18.912Z,101371.09
2022-09-20T01:23:19.144Z,101369.16
2022-09-20T01:26:10.172Z,101366.53
2022-09-20T01:28:42.811Z,101374.91
2022-09-20T01:31:25.889Z,101369.63
2022-09-20T01:34:03.007Z,101362.81
2022-09-20T01:37:11.755Z,101364.44
2022-09-20T01:40:15.205Z,101372.81
2022-09-20T01:43:00.210Z,101380.78
2022-09-20T01:45:32.234Z,101379.94
2022-09-20T01:48:37.252Z,101377.75
2022-09-20T01:51:30.163Z,101374.28
2022-09-20T01:54:49.687Z,101375.97
2022-09-20T01:57:46.443Z,101379.72
2022-09-20T02:01:15.692Z,101383.50
2022-09-20T02:03:45.537Z,101381.81
2022-09-20T02:06:34.385Z,101380.94
2022-09-20T02:09:15.685Z,101384.97
2022-09-20T02:12:21.950Z,101381.63
2022-09-20T02:15:28.481Z,101388.75
2022-09-20T02:18:13.417Z,101389.28
2022-09-20T02:21:24.058Z,101392.84
2022-09-20T02:24:32.201Z,101394.22
2022-09-20T02:27:25.768Z,101396.41
2022-09-20T02:30:13.822Z,101392.56
2022-09-20T02:32:55.857Z,101394.25
2022-09-20T02:36:02.214Z,101395.81
2022-09-20T02:38:50.272Z,101393.66
2022-09-20T02:41:45.174Z,101392.06
2022-09-20T02:44:23.587Z,101396.16
2022-09-20T02:47:36.729Z,101405.59
2022-09-20T02:50:47.525Z,101400.78
2022-09-20T02:53:33.074Z,101405.94
2022-09-20T02:56:26.858Z,101400.22
2022-09-20T02:59:04.779Z,101398.53
2022-09-20T03:02:03.309Z,101406.81
2022-09-20T03:04:58.484Z,101402.09
2022-09-20T03:08:13.258Z,101405.19
2022-09-20T03:10:46.440Z,101417.75
2022-09-20T03:13:34.083Z,101412.47
2022-09-20T03:16:31.781Z,101415.78
2022-09-20T03:20:03.305Z,101415.97
2022-09-20T03:22:49.777Z,101417.81
2022-09-20T03:25:28.090Z,101421.38
2022-09-20T03:28:06.845Z,101424.53
2022-09-20T03:31:13.503Z,101429.47
2022-09-20T03:33:58.029Z,101427.63
2022-09-20T03:37:17.174Z,101439.88
2022-09-20T03:40:11.806Z,101443.47
2022-09-20T03:42:49.837Z,101442.72
2022-09-20T03:45:50.560Z,101441.72
2022-09-20T03:48:45.155Z,101440.72
2022-09-20T03:51:39.230Z,101449.56
2022-09-20T03:54:37.412Z,101449.09
2022-09-20T03:57:48.773Z,101445.91
2022-09-20T04:00:49.447Z,101448.59
2022-09-20T04:03:35.733Z,101451.56
2022-09-20T04:06:47.143Z,101450.16
2022-09-20T04:09:41.533Z,101449.03
2022-09-20T04:12:48.625Z,101454.47
2022-09-20T04:15:52.377Z,101455.88
2022-09-20T04:18:38.627Z,101456.13
2022-09-20T04:21:15.270Z,101461.28
2022-09-20T04:23:56.483Z,101472.69
2022-09-20T04:26:38.394Z,101474.41
2022-09-20T04:29:35.373Z,101471.84
2022-09-20T04:32:14.393Z,101472.41
2022-09-20T04:35:31.706Z,101480.72
2022-09-20T04:38:05.517Z,101476.28
2022-09-20T04:41:16.547Z,101483.22
2022-09-20T04:44:25.274Z,101473.78
2022-09-20T04:47:25.824Z,101469.88
2022-09-20T04:50:24.951Z,101485.25
2022-09-20T04:53:00.872Z,101488.38
2022-09-20T04:56:14.829Z,101484.44
2022-09-20T04:58:49.372Z,101487.25
2022-09-20T05:01:56.194Z,101494.69
2022-09-20T05:05:07.004Z,101502.69
2022-09-20T05:08:46.093Z,101504.25
2022-09-20T05:11:30.577Z,101504.41
2022-09-20T05:14:22.883Z,101503.81
2022-09-20T05:17:10.337Z,101513.25
2022-09-20T05:20:13.507Z,101507.50
2022-09-20T05:22:52.552Z,101514.06
2022-09-20T05:25:44.419Z,101513.75
2022-09-20T05:28:29.503Z,101515.75
2022-09-20T05:31:15.680Z,101517.75
2022-09-20T05:33:56.296Z,101526.13
2022-09-20T05:37:08.236Z,101514.22
2022-09-20T05:40:24.688Z,101519.06
2022-09-20T05:43:28.818Z,101516.41
2022-09-20T05:46:15.029Z,101529.03
2022-09-20T05:49:35.293Z,101530.69
2022-09-20T05:52:17.091Z,101526.91
2022-09-20T05:55:30.979Z,101536.28
2022-09-20T05:58:45.261Z,101536.22
2022-09-20T06:01:21.848Z,101539.94
2022-09-20T06:04:08.536Z,101542.06
2022-09-20T06:07:01.850Z,101552.47
2022-09-20T06:10:10.787Z,101552.75
2022-09-20T06:12:58.926Z,101550.41
2022-09-20T06:16:05.784Z,101548.75
2022-09-20T06:18:51.108Z,101545.94
2022-09-20T06:21:42.709Z,101550.16
2022-09-20T06:24:44.187Z,101551.94
2022-09-20T06:27:21.205Z,101558.78
2022-09-20T06:29:58.816Z,101566.16
2022-09-20T06:32:28.172Z,101567.59
2022-09-20T06:34:55.318Z,101566.59
2022-09-20T06:38:02.123Z,101575.78
2022-09-20T06:41:05.202Z,101575.97
2022-09-20T06:43:32.147Z,101576.38
2022-09-20T06:46:06.180Z,101578.44
2022-09-20T06:48:39.903Z,101570.63
2022-09-20T06:51:09.923Z,101576.63
2022-09-20T06:53:40.419Z,101585.88
2022-09-20T06:56:17.302Z,101589.03
2022-09-20T06:58:44.360Z,101589.81
2022-09-20T07:01:20.000Z,101592.25
2022-09-20T07:03:59.064Z,101585.84
2022-09-20T07:06:29.258Z,101591.75
2022-09-20T07:08:56.192Z,101587.97
2022-09-20T07:11:25.434Z,101592.66
2022-09-20T07:13:58.262Z,101588.84
2022-09-20T07:16:28.024Z,101600.31
2022-09-20T07:18:58.162Z,101601.94
2022-09-20T07:21:25.350Z,101604.88
2022-09-20T07:23:54.132Z,101605.72
2022-09-20T07:26:26.510Z,101611.59
2022-09-20T07:28:57.621Z,101615.13
2022-09-20T07:31:26.793Z,101626.59
2022-09-20T07:33:54.204Z,101620.19
2022-09-20T07:36:23.687Z,101623.59
2022-09-20T07:38:53.145Z,101624.75
2022-09-20T07:41:22.798Z,101633.47
2022-09-20T07:43:50.949Z,101634.56
2022-09-20T07:46:24.196Z,101637.09
2022-09-20T07:48:51.408Z,101635.03
2022-09-20T07:51:20.632Z,101641.50
2022-09-20T07:53:51.435Z,101634.28
2022-09-20T07:56:18.980Z,101642.09
2022-09-20T07:58:52.343Z,101645.47
2022-09-20T08:01:22.211Z,101648.53
2022-09-20T08:03:55.379Z,101654.16
2022-09-20T08:06:25.161Z,101653.88
2022-09-20T08:08:52.603Z,101653.19
2022-09-20T08:11:27.803Z,101657.41
2022-09-20T08:14:08.289Z,101656.69
2022-09-20T08:16:47.519Z,101663.38
2022-09-20T08:19:21.383Z,101661.75
2022-09-20T08:21:54.561Z,101661.88
2022-09-20T08:24:22.160Z,101665.16
2022-09-20T08:26:49.039Z,101661.31
2022-09-20T08:29:18.053Z,101673.72
2022-09-20T08:31:46.414Z,101665.97
2022-09-20T08:34:15.195Z,101672.50
2022-09-20T08:36:47.654Z,101668.63
2022-09-20T08:42:33.892Z,101668.97
2022-09-20T08:45:22.172Z,101673.19
2022-09-20T08:48:05.539Z,101670.03
2022-09-20T08:50:36.908Z,101676.44
2022-09-20T08:53:05.101Z,101665.56
2022-09-20T08:55:40.176Z,101669.97
2022-09-20T08:58:11.766Z,101675.72
2022-09-20T09:00:48.375Z,101681.75
2022-09-20T09:03:19.123Z,101680.34
2022-09-20T09:05:58.441Z,101672.13
2022-09-20T09:08:37.909Z,101678.47
2022-09-20T09:11:09.704Z,101685.72
2022-09-20T09:14:35.205Z,101676.00
2022-09-20T09:17:04.448Z,101680.88
2022-09-20T09:19:49.931Z,101679.97
2022-09-20T09:22:39.636Z,101673.44
2022-09-20T09:25:17.178Z,101678.97
2022-09-20T09:28:03.823Z,101684.81
2022-09-20T09:30:43.257Z,101688.75
2022-09-20T09:33:31.630Z,101690.53
2022-09-20T09:36:08.999Z,101690.38
2022-09-20T09:38:47.639Z,101686.75
2022-09-20T09:41:29.955Z,101699.09
2022-09-20T09:44:27.757Z,101691.38
2022-09-20T09:46:57.447Z,101690.00
2022-09-20T09:49:36.381Z,101692.31
2022-09-20T09:52:18.089Z,101686.31
2022-09-20T09:54:55.113Z,101690.94
2022-09-20T09:57:34.425Z,101694.50
2022-09-20T10:00:20.188Z,101694.09
2022-09-20T10:03:19.859Z,101688.13
2022-09-20T10:06:05.180Z,101689.81
2022-09-20T10:09:09.109Z,101689.94
2022-09-20T10:12:17.647Z,101695.31
2022-09-20T10:15:12.176Z,101689.56
2022-09-20T10:17:55.769Z,101696.91
2022-09-20T10:21:25.016Z,101697.22
2022-09-20T10:24:31.129Z,101687.06
2022-09-20T10:27:10.622Z,101690.75
2022-09-20T10:29:40.179Z,101692.19
2022-09-20T10:32:27.153Z,101694.38
2022-09-20T10:35:02.889Z,101687.75
2022-09-20T10:37:48.567Z,101695.09
2022-09-20T10:40:16.304Z,101688.88
2022-09-20T10:43:09.053Z,101695.47
2022-09-20T10:46:27.602Z,101695.13
2022-09-20T10:49:37.046Z,101693.28
2022-09-20T10:52:31.301Z,101687.78
2022-09-20T10:55:30.493Z,101698.59
2022-09-20T10:58:24.657Z,101696.72
2022-09-20T11:00:58.098Z,101691.25
2022-09-20T11:03:55.703Z,101693.09
2022-09-20T11:06:44.176Z,101683.63
2022-09-20T11:09:20.200Z,101690.41
2022-09-20T11:11:54.191Z,101693.53
2022-09-20T11:14:33.550Z,101699.44
2022-09-20T11:17:39.273Z,101685.66
2022-09-20T11:20:30.540Z,101687.09
2022-09-20T11:23:12.291Z,101688.53
2022-09-20T11:26:10.610Z,101687.06
2022-09-20T11:28:51.353Z,101700.13
2022-09-20T11:31:20.294Z,101689.69
2022-09-20T11:33:55.966Z,101689.13
2022-09-20T11:36:59.506Z,101687.81
2022-09-20T11:40:04.640Z,101685.06
2022-09-20T11:42:38.745Z,101688.44
2022-09-20T11:45:06.555Z,101695.19
2022-09-20T11:47:54.386Z,101690.53
2022-09-20T11:50:58.799Z,101704.25
2022-09-20T11:53:47.247Z,101702.09
2022-09-20T11:56:29.250Z,101696.22
2022-09-20T11:59:05.844Z,101694.56
2022-09-20T12:01:43.767Z,101689.13
2022-09-20T12:04:35.572Z,101684.72
2022-09-20T12:07:19.374Z,101688.47
2022-09-20T12:10:24.971Z,101694.00
2022-09-20T12:13:07.769Z,101692.28
2022-09-20T12:15:41.864Z,101701.38
2022-09-20T12:18:35.730Z,101697.84
2022-09-20T12:21:16.332Z,101702.75
2022-09-20T12:23:46.624Z,101692.00
2022-09-20T12:26:22.597Z,101700.06
2022-09-20T12:28:50.265Z,101693.69
2022-09-20T12:31:20.251Z,101699.94
2022-09-20T12:34:11.929Z,101698.44
2022-09-20T12:36:44.660Z,101700.56
2022-09-20T12:39:11.508Z,101707.72
2022-09-20T12:42:01.323Z,101694.22
2022-09-20T12:44:39.821Z,101691.97
2022-09-20T12:47:21.330Z,101690.25
2022-09-20T12:50:06.645Z,101697.72
2022-09-20T12:52:53.888Z,101695.50
2022-09-20T12:55:27.229Z,101695.56
2022-09-20T12:58:17.172Z,101701.44
2022-09-20T13:00:49.546Z,101692.03
2022-09-20T13:03:29.142Z,101698.59
2022-09-20T13:06:14.843Z,101704.84
2022-09-20T13:09:08.513Z,101704.69
2022-09-20T13:11:43.883Z,101703.78
2022-09-20T13:14:24.385Z,101701.69
2022-09-20T13:16:59.442Z,101694.66
2022-09-20T13:19:32.679Z,101691.22
2022-09-20T13:22:25.600Z,101696.88
2022-09-20T13:24:57.881Z,101695.19
2022-09-20T13:27:44.183Z,101697.84
2022-09-20T13:30:19.977Z,101695.31
2022-09-20T13:32:52.763Z,101697.66
2022-09-20T13:35:32.674Z,101697.69
2022-09-20T13:38:05.727Z,101702.50
2022-09-20T13:40:45.253Z,101701.50
2022-09-20T13:43:49.427Z,101707.06
2022-09-20T13:46:43.042Z,101710.38
2022-09-20T13:49:25.017Z,101701.50
2022-09-20T13:51:54.710Z,101707.31
2022-09-20T13:54:31.507Z,101704.63
2022-09-20T13:57:03.425Z,101709.22
2022-09-20T13:59:45.404Z,101707.28
2022-09-20T14:02:30.719Z,101707.84
2022-09-20T14:05:05.609Z,101705.34
2022-09-20T14:07:36.890Z,101698.81
2022-09-20T14:10:05.337Z,101696.38
2022-09-20T14:12:36.226Z,101706.72
2022-09-20T14:15:10.324Z,101706.03
2022-09-20T14:17:37.553Z,101699.91
2022-09-20T14:20:05.746Z,101696.22
2022-09-20T14:22:32.781Z,101697.44
2022-09-20T14:25:15.107Z,101701.72
2022-09-20T14:27:42.375Z,101703.81
2022-09-20T14:30:39.230Z,101702.00
2022-09-20T14:33:18.044Z,101707.91
2022-09-20T14:35:52.464Z,101703.41
2022-09-20T14:38:25.004Z,101707.03
2022-09-20T14:40:52.756Z,101708.78
2022-09-20T14:43:34.838Z,101705.84
2022-09-20T14:46:15.818Z,101710.47
2022-09-20T14:48:45.400Z,101709.63
2022-09-20T14:51:18.970Z,101705.38
2022-09-20T14:53:52.882Z,101705.88
2022-09-20T14:56:49.708Z,101705.31
2022-09-20T14:59:30.269Z,101715.97
2022-09-20T15:02:03.639Z,101708.19
2022-09-20T15:04:32.777Z,101703.19
2022-09-20T15:07:11.497Z,101709.91
2022-09-20T15:09:38.638Z,101711.84
2022-09-20T15:12:12.551Z,101710.31
2022-09-20T15:14:41.405Z,101717.72
2022-09-20T15:17:19.176Z,101712.31
2022-09-20T15:19:50.181Z,101719.84
2022-09-20T15:22:17.567Z,101719.13
2022-09-20T15:24:48.776Z,101716.13
2022-09-20T15:27:18.207Z,101711.06
2022-09-20T15:29:45.042Z,101720.19
2022-09-20T15:32:14.987Z,101719.47
2022-09-20T15:34:46.920Z,101717.09
2022-09-20T15:37:14.236Z,101720.63
2022-09-20T15:39:41.226Z,101720.94
2022-09-20T15:42:11.132Z,101722.97
2022-09-20T15:44:40.340Z,101716.31
2022-09-20T15:47:07.806Z,101710.25
2022-09-20T15:49:36.930Z,101719.16
2022-09-20T15:52:03.929Z,101721.59
2022-09-20T15:54:32.841Z,101719.72
2022-09-20T15:56:59.964Z,101721.81
2022-09-20T15:59:28.483Z,101721.66
2022-09-20T16:01:57.878Z,101719.63
2022-09-20T16:04:29.965Z,101723.78
2022-09-20T16:06:56.843Z,101727.91
2022-09-20T16:09:23.703Z,101735.31
2022-09-20T16:11:58.664Z,101732.38
2022-09-20T16:14:26.126Z,101735.00
2022-09-20T16:16:56.699Z,101734.22
2022-09-20T16:19:30.505Z,101737.31
2022-09-20T16:21:59.924Z,101742.22
2022-09-20T16:24:32.573Z,101744.31
2022-09-20T16:27:01.940Z,101746.19
2022-09-20T16:29:30.309Z,101751.97
2022-09-20T16:32:03.408Z,101755.41
2022-09-20T16:34:36.999Z,101757.75
2022-09-20T16:37:07.914Z,101758.34
2022-09-20T16:39:38.073Z,101768.09
2022-09-20T16:42:10.642Z,101764.06
2022-09-20T16:44:43.082Z,101761.69
2022-09-20T16:47:24.156Z,101773.06
2022-09-20T16:49:54.262Z,101776.38
2022-09-20T16:52:26.612Z,101772.47
2022-09-20T16:54:56.037Z,101780.44
2022-09-20T16:57:23.305Z,101779.78
2022-09-20T16:59:51.868Z,101776.56
2022-09-20T17:02:20.017Z,101779.81
2022-09-20T17:04:47.065Z,101776.66
2022-09-20T17:07:14.062Z,101785.25
2022-09-20T17:09:41.254Z,101786.97
2022-09-20T17:12:10.776Z,101786.78
2022-09-20T17:14:38.082Z,101791.56
2022-09-20T17:17:05.076Z,101794.25
2022-09-20T17:19:33.442Z,101789.03
2022-09-20T17:22:02.755Z,101797.94
2022-09-20T17:24:30.252Z,101793.16
2022-09-20T17:26:57.224Z,101796.81
2022-09-20T17:29:31.148Z,101810.13
2022-09-20T17:32:01.163Z,101806.84
2022-09-20T17:34:30.142Z,101816.41
2022-09-20T17:36:57.186Z,101811.56
2022-09-20T17:39:27.122Z,101819.34
2022-09-20T17:41:56.800Z,101820.13
2022-09-20T17:44:27.744Z,101824.75
2022-09-20T17:46:57.286Z,101826.84
2022-09-20T17:49:24.445Z,101828.16
2022-09-20T17:51:58.136Z,101833.47
2022-09-20T17:54:25.231Z,101825.84
2022-09-20T17:56:57.652Z,101836.75
2022-09-20T17:59:24.858Z,101838.13
2022-09-20T18:01:51.939Z,101846.78
2022-09-20T18:04:21.230Z,101852.53
2022-09-20T18:06:52.802Z,101848.94
2022-09-20T18:09:27.335Z,101854.94
2022-09-20T18:11:59.570Z,101859.09
2022-09-20T18:14:30.105Z,101863.16
2022-09-20T18:17:02.429Z,101864.09
2022-09-20T18:19:33.889Z,101871.19
2022-09-20T18:22:07.039Z,101877.72
2022-09-20T18:24:34.157Z,101876.22
2022-09-20T18:27:04.806Z,101878.09
2022-09-20T18:29:36.718Z,101883.81
2022-09-20T18:32:09.877Z,101876.13
2022-09-20T18:34:37.011Z,101883.50
2022-09-20T18:37:06.173Z,101893.22
2022-09-20T18:39:35.047Z,101898.69
2022-09-20T18:42:05.026Z,101892.53
2022-09-20T18:44:33.593Z,101894.59
2022-09-20T18:47:06.132Z,101895.78
2022-09-20T18:49:33.442Z,101901.41
2022-09-20T18:52:01.002Z,101910.31
2022-09-20T18:54:33.543Z,101914.06
2022-09-20T18:57:01.339Z,101909.97
2022-09-20T18:59:28.959Z,101915.38
2022-09-20T19:03:04.771Z,101914.53
2022-09-20T19:05:45.270Z,101914.94
2022-09-20T19:08:35.201Z,101921.63
2022-09-20T19:11:10.194Z,101930.13
2022-09-20T19:13:41.266Z,101927.25
2022-09-20T19:16:28.089Z,101927.91
2022-09-20T19:19:00.980Z,101928.53
2022-09-20T19:21:46.158Z,101934.31
2022-09-20T19:24:45.025Z,101936.31
2022-09-20T19:27:13.913Z,101930.38
2022-09-20T19:29:41.958Z,101935.59
2022-09-20T19:32:21.977Z,101943.13
2022-09-20T19:35:02.326Z,101949.97
2022-09-20T19:38:15.629Z,101951.34
2022-09-20T19:41:12.203Z,101955.66
2022-09-20T19:44:02.067Z,101955.00
2022-09-20T19:46:43.824Z,101958.69
2022-09-20T19:49:22.690Z,101957.63
2022-09-20T19:51:55.909Z,101971.59
2022-09-20T19:54:24.640Z,101966.94
2022-09-20T19:56:59.955Z,101969.56
2022-09-20T19:59:29.815Z,101975.22
2022-09-20T20:01:57.600Z,101975.00
2022-09-20T20:04:25.249Z,101971.53
2022-09-20T20:07:08.721Z,101982.25
2022-09-20T20:09:44.308Z,101971.34
2022-09-20T20:12:46.921Z,101981.88
2022-09-20T20:15:42.630Z,101984.78
2022-09-20T20:18:52.328Z,101986.13
2022-09-20T20:21:45.441Z,101981.84
2022-09-20T20:24:41.769Z,101989.72
2022-09-20T20:27:08.667Z,101985.44
2022-09-20T20:29:35.594Z,101981.22
2022-09-20T20:32:05.424Z,101993.31
2022-09-20T20:34:32.818Z,101998.38
2022-09-20T20:37:02.821Z,102002.25
2022-09-20T20:39:31.521Z,102004.97
2022-09-20T20:42:06.206Z,102006.53
2022-09-20T20:44:37.339Z,102010.47
2022-09-20T20:47:06.432Z,102009.84
2022-09-20T20:49:33.959Z,102015.09
2022-09-20T20:52:05.129Z,102007.34
2022-09-20T20:54:32.901Z,102017.63
2022-09-20T20:56:59.900Z,102012.78
2022-09-20T20:59:26.981Z,102015.09
2022-09-20T21:01:53.988Z,102015.47
2022-09-20T21:04:21.779Z,102014.09
2022-09-20T21:06:51.504Z,102018.19
2022-09-20T21:09:18.450Z,102015.97
2022-09-20T21:11:46.831Z,102019.50
2022-09-20T21:14:17.841Z,102020.53
2022-09-20T21:16:47.122Z,102024.53
2022-09-20T21:19:15.812Z,102024.13
2022-09-20T21:21:45.652Z,102028.38
2022-09-20T21:24:17.272Z,102034.13
2022-09-20T21:26:45.683Z,102032.72
2022-09-20T21:29:16.575Z,102029.56
2022-09-20T21:31:46.238Z,102025.00
2022-09-20T21:34:20.597Z,102035.88
2022-09-20T21:36:53.086Z,102031.88
2022-09-20T21:39:24.120Z,102037.03
2022-09-20T21:41:54.803Z,102035.03
2022-09-20T21:44:21.668Z,102032.44
2022-09-20T21:46:51.756Z,102037.00
2022-09-20T21:49:20.042Z,102037.88
2022-09-20T21:51:47.143Z,102034.72
2022-09-20T21:54:20.537Z,102046.25
2022-09-20T21:56:50.533Z,102040.25
2022-09-20T21:59:22.538Z,102049.84
2022-09-20T22:01:50.652Z,102038.16
2022-09-20T22:04:23.802Z,102040.25
2022-09-20T22:06:51.055Z,102041.44
2022-09-20T22:09:20.661Z,102046.25
2022-09-20T22:11:49.173Z,102052.25
2022-09-20T22:14:19.430Z,102052.84
2022-09-20T22:16:48.710Z,102053.50
2022-09-20T22:19:19.235Z,102056.66
2022-09-20T22:21:49.254Z,102065.19
2022-09-20T22:24:17.711Z,102061.81
2022-09-20T22:26:50.759Z,102051.22
2022-09-20T22:29:20.276Z,102053.72
2022-09-20T22:31:50.003Z,102059.63
2022-09-20T22:34:24.909Z,102064.47
2022-09-20T22:36:54.289Z,102057.22
2022-09-20T22:39:21.360Z,102059.50
2022-09-20T22:41:49.120Z,102056.00
2022-09-20T22:44:16.571Z,102060.47
2022-09-20T22:46:44.308Z,102058.84
2022-09-20T22:49:13.779Z,102063.84
2022-09-20T22:51:40.923Z,102067.19
2022-09-20T22:54:11.427Z,102067.34
2022-09-20T22:56:41.309Z,102066.84
2022-09-20T22:59:12.410Z,102072.50
2022-09-20T23:01:48.900Z,102081.41
2022-09-20T23:04:19.517Z,102079.63
2022-09-20T23:06:55.299Z,102073.50
2022-09-20T23:09:26.702Z,102077.72
2022-09-20T23:11:54.070Z,102077.41
2022-09-20T23:14:24.990Z,102084.59
2022-09-20T23:16:53.082Z,102084.25
2022-09-20T23:19:20.479Z,102082.09
2022-09-20T23:21:47.627Z,102084.44
2022-09-20T23:24:16.255Z,102093.19
2022-09-20T23:26:44.359Z,102085.72
2022-09-20T23:29:14.741Z,102096.78
2022-09-20T23:31:46.351Z,102099.34
2022-09-20T23:34:17.802Z,102090.56
2022-09-20T23:36:45.662Z,102101.13
2022-09-20T23:39:13.748Z,102100.75
2022-09-20T23:41:41.867Z,102102.06
2022-09-20T23:44:10.367Z,102112.69
2022-09-20T23:46:39.748Z,102104.56
2022-09-20T23:49:09.878Z,102112.22
2022-09-20T23:51:39.901Z,102118.50
2022-09-20T23:54:07.042Z,102113.59
2022-09-20T23:56:34.653Z,102114.19
2022-09-20T23:59:04.053Z,102119.78
